Time;durP1;ratioP1;P1;durP2;ratioP2;P2;SDS_P1;SDS_P2;PMS_P1;PMS_P2;Temp;Humidity;BMP_temperature;BMP_pressure;BME280_temperature;BME280_humidity;BME280_pressure;Samples;Min_cycle;Max_cycle;Signal;HPM_P1;HPM_P2
2022/09/04 00:00:10;;;;;;;0.80;0.80;;;;;;;16.83;81.07;96691.88;4913127;29;20049;-88
2022/09/04 00:02:49;;;;;;;3.78;1.83;;;;;;;16.88;80.12;96689.41;4913832;29;20049;-86
2022/09/04 00:05:27;;;;;;;1.27;1.17;;;;;;;16.92;79.00;96691.59;4912261;29;20084;-87
2022/09/04 00:08:10;;;;;;;1.40;1.30;;;;;;;16.88;78.30;96689.41;4913236;29;20072;-84
2022/09/04 00:10:47;;;;;;;1.20;1.10;;;;;;;16.91;78.36;96696.06;4913123;29;20089;-85
2022/09/04 00:13:21;;;;;;;1.08;0.98;;;;;;;16.91;78.84;96697.91;4913316;29;20052;-88
2022/09/04 00:15:56;;;;;;;0.82;0.82;;;;;;;16.94;79.42;96705.38;4912674;29;20073;-83
2022/09/04 00:18:30;;;;;;;2.55;1.00;;;;;;;16.95;80.04;96701.72;4911591;29;20522;-87
2022/09/04 00:21:07;;;;;;;1.38;1.27;;;;;;;16.95;78.61;96712.25;4911333;29;20052;-84
2022/09/04 00:23:41;;;;;;;1.00;1.00;;;;;;;16.97;80.28;96711.00;4911509;29;20109;-86
2022/09/04 00:26:17;;;;;;;3.47;1.40;;;;;;;17.03;81.85;96710.13;4911708;29;20056;-81
2022/09/04 00:28:50;;;;;;;1.52;0.98;;;;;;;17.04;79.09;96708.31;4911071;29;20059;-84
2022/09/04 00:31:25;;;;;;;2.22;1.02;;;;;;;16.99;77.81;96713.41;4909689;29;20048;-83
2022/09/04 00:34:06;;;;;;;1.63;1.02;;;;;;;16.95;78.07;96707.00;4910306;29;20095;-83
2022/09/04 00:36:39;;;;;;;0.70;0.70;;;;;;;16.94;77.65;96710.63;4909270;29;20059;-86
2022/09/04 00:39:12;;;;;;;1.00;0.93;;;;;;;16.93;77.70;96715.09;4909431;29;20048;-81
2022/09/04 00:41:54;;;;;;;1.20;0.82;;;;;;;16.92;77.39;96717.94;4908412;29;20048;-80
2022/09/04 00:44:45;;;;;;;2.55;1.05;;;;;;;16.90;77.30;96715.53;4909205;29;20044;-82
2022/09/04 00:47:32;;;;;;;2.45;1.30;;;;;;;16.86;77.71;96715.19;4912308;29;20052;-84
2022/09/04 00:50:18;;;;;;;1.33;1.00;;;;;;;16.83;77.31;96715.59;4911369;29;20112;-81
2022/09/04 00:53:08;;;;;;;1.27;0.95;;;;;;;16.80;77.40;96717.88;4911517;29;20053;-81
2022/09/04 00:55:54;;;;;;;1.00;1.00;;;;;;;16.74;77.32;96722.16;4909638;29;20105;-79
2022/09/04 00:58:44;;;;;;;1.30;1.20;;;;;;;16.71;77.68;96722.59;4911184;29;20123;-81
2022/09/04 01:01:21;;;;;;;4.63;1.50;;;;;;;16.69;78.88;96717.53;4910517;29;20048;-82
2022/09/04 01:04:18;;;;;;;2.47;1.05;;;;;;;16.70;78.02;96728.88;4910368;29;20353;-84
2022/09/04 01:06:54;;;;;;;1.52;1.10;;;;;;;16.69;77.69;96728.06;4905776;29;20057;-82
2022/09/04 01:09:45;;;;;;;1.40;1.10;;;;;;;16.70;78.03;96728.88;4911103;29;20061;-86
2022/09/04 01:12:26;;;;;;;1.52;1.08;;;;;;;16.68;78.02;96717.75;4912707;29;20060;-84
2022/09/04 01:15:00;;;;;;;2.65;1.00;;;;;;;16.67;77.73;96731.94;4913682;29;20048;-83
2022/09/04 01:17:36;;;;;;;1.50;1.00;;;;;;;16.64;77.67;96733.19;4913291;29;20061;-88
2022/09/04 01:20:11;;;;;;;1.27;1.00;;;;;;;16.64;78.39;96729.75;4912553;29;20104;-83
2022/09/04 01:23:20;;;;;;;0.73;0.73;;;;;;;16.64;77.87;96721.84;4911428;29;20152;-81
2022/09/04 01:26:04;;;;;;;2.60;1.30;;;;;;;16.62;77.82;96737.88;4910132;29;20072;-83
2022/09/04 01:28:40;;;;;;;1.35;1.20;;;;;;;16.61;77.93;96732.81;4910926;29;20048;-82
2022/09/04 01:31:19;;;;;;;1.75;1.17;;;;;;;16.60;78.15;96736.47;4909335;29;20048;-83
2022/09/04 01:34:00;;;;;;;6.47;1.48;;;;;;;16.60;77.98;96747.81;4908860;29;20426;-81
2022/09/04 01:36:36;;;;;;;2.03;1.20;;;;;;;16.58;78.14;96741.94;4908833;29;20471;-83
2022/09/04 01:39:04;;;;;;;1.60;1.50;;;;;;;16.59;78.12;96750.66;4908808;29;20056;-81
2022/09/04 01:41:41;;;;;;;2.40;1.10;;;;;;;16.59;78.21;96742.75;4908703;29;20081;-83
2022/09/04 01:44:11;;;;;;;2.45;1.30;;;;;;;16.58;78.13;96743.78;4909169;29;20086;-81
2022/09/04 01:46:46;;;;;;;0.80;0.80;;;;;;;16.58;78.10;96741.16;4908963;29;20052;-83
2022/09/04 01:49:24;;;;;;;1.10;1.00;;;;;;;16.57;78.00;96753.50;4907857;29;20052;-81
2022/09/04 01:52:02;;;;;;;1.08;1.00;;;;;;;16.56;78.03;96751.09;4906380;29;20127;-83
2022/09/04 01:54:42;;;;;;;1.65;1.10;;;;;;;16.54;78.03;96755.75;4905906;29;20104;-82
2022/09/04 01:57:22;;;;;;;0.95;0.95;;;;;;;16.51;77.87;96757.00;4905170;29;20053;-80
2022/09/04 02:00:02;;;;;;;1.15;1.08;;;;;;;16.50;78.14;96757.22;4906249;29;20159;-84
2022/09/04 02:02:41;;;;;;;1.17;0.98;;;;;;;16.48;77.90;96757.41;4906854;29;20503;-80
2022/09/04 02:05:16;;;;;;;3.03;1.15;;;;;;;16.44;78.05;96754.44;4905237;29;20063;-80
2022/09/04 02:07:47;;;;;;;1.58;1.10;;;;;;;16.43;78.03;96752.81;4906727;29;20602;-80
2022/09/04 02:10:27;;;;;;;1.63;0.88;;;;;;;16.42;78.29;96761.75;4910460;29;20049;-86
2022/09/04 02:13:07;;;;;;;1.25;1.15;;;;;;;16.43;78.39;96757.28;4911851;29;20052;-81
2022/09/04 02:15:43;;;;;;;2.08;1.13;;;;;;;16.42;78.30;96756.47;4908187;29;20052;-84
2022/09/04 02:18:25;;;;;;;0.70;0.70;;;;;;;16.41;78.19;96773.28;4908438;29;20085;-80
2022/09/04 02:20:58;;;;;;;1.20;1.02;;;;;;;16.38;78.06;96770.28;4910085;29;20060;-81
2022/09/04 02:23:34;;;;;;;2.47;1.10;;;;;;;16.35;78.35;96774.13;4909346;29;20101;-83
2022/09/04 02:26:11;;;;;;;2.42;1.02;;;;;;;16.33;78.61;96775.34;4909105;29;20049;-84
2022/09/04 02:28:49;;;;;;;1.10;1.10;;;;;;;16.30;78.10;96767.91;4908592;29;20427;-83
2022/09/04 02:31:25;;;;;;;2.00;1.05;;;;;;;16.26;78.67;96767.50;4905114;29;20061;-85
2022/09/04 02:34:01;;;;;;;1.35;1.20;;;;;;;16.26;78.53;96767.50;4904597;29;20120;-81
2022/09/04 02:36:34;;;;;;;1.10;1.00;;;;;;;16.24;78.71;96766.91;4906218;29;20467;-81
2022/09/04 02:39:12;;;;;;;2.00;1.48;;;;;;;16.24;79.41;96764.28;4905632;29;20056;-85
2022/09/04 02:41:50;;;;;;;1.50;1.20;;;;;;;16.27;79.11;96763.88;4904987;29;20113;-81
2022/09/04 02:44:27;;;;;;;1.10;1.05;;;;;;;16.28;79.24;96762.84;4905593;29;20052;-81
2022/09/04 02:47:04;;;;;;;2.42;1.10;;;;;;;16.30;79.05;96775.81;4903013;29;20048;-85
2022/09/04 02:49:39;;;;;;;2.05;1.17;;;;;;;16.28;78.75;96770.75;4904038;29;20555;-86
2022/09/04 02:52:24;;;;;;;1.08;0.98;;;;;;;16.24;78.93;96769.56;4903959;29;20185;-80
2022/09/04 02:55:11;;;;;;;2.03;1.30;;;;;;;16.22;79.36;96771.59;4901901;29;20053;-80
2022/09/04 02:57:53;;;;;;;1.50;1.20;;;;;;;16.20;79.79;96773.63;4903161;29;20139;-80
2022/09/04 03:00:31;;;;;;;3.88;1.30;;;;;;;16.19;79.17;96772.03;4902343;29;20499;-81
2022/09/04 03:03:05;;;;;;;1.35;1.23;;;;;;;16.15;79.26;96774.25;4902553;29;20064;-80
2022/09/04 03:05:40;;;;;;;2.58;1.25;;;;;;;16.15;78.91;96776.91;4913827;29;20053;-89
2022/09/04 03:08:15;;;;;;;5.25;1.73;;;;;;;16.15;79.45;96781.34;4913376;29;20061;-87
2022/09/04 03:10:47;;;;;;;2.78;1.27;;;;;;;16.13;78.63;96778.13;4913079;29;20045;-89
2022/09/04 03:13:23;;;;;;;4.07;1.10;;;;;;;16.08;78.92;96781.41;4913720;29;20068;-87
2022/09/04 03:15:58;;;;;;;2.53;1.10;;;;;;;16.05;79.10;96779.22;4895721;29;20574;-85
2022/09/04 03:18:30;;;;;;;1.95;0.95;;;;;;;16.04;78.92;96786.28;4912687;29;20507;-84
2022/09/04 03:21:00;;;;;;;1.33;1.20;;;;;;;16.05;78.89;96782.63;4911868;29;20104;-84
2022/09/04 03:23:34;;;;;;;0.85;0.85;;;;;;;16.06;79.10;96781.59;4911873;29;20084;-82
2022/09/04 03:26:20;;;;;;;1.50;1.13;;;;;;;16.11;80.77;96788.06;4910836;29;20061;-85
2022/09/04 03:28:59;;;;;;;1.30;1.20;;;;;;;16.10;79.26;96789.09;4910830;29;20112;-80
2022/09/04 03:31:32;;;;;;;1.15;1.13;;;;;;;16.08;79.29;96793.75;4909761;29;20049;-84
2022/09/04 03:34:15;;;;;;;2.28;1.20;;;;;;;16.06;79.52;96788.69;4909551;29;20124;-86
2022/09/04 03:36:54;;;;;;;3.25;0.88;;;;;;;16.09;79.08;96790.09;4909191;29;20076;-82
2022/09/04 03:39:27;;;;;;;1.50;1.10;;;;;;;16.06;79.06;96792.13;4908200;29;20076;-84
2022/09/04 03:42:08;;;;;;;3.03;1.25;;;;;;;16.05;79.00;96793.16;4908393;29;20488;-82
2022/09/04 03:44:47;;;;;;;1.17;1.17;;;;;;;16.04;79.13;96788.91;4908380;29;20068;-81
2022/09/04 03:47:30;;;;;;;1.15;1.10;;;;;;;16.02;79.34;96790.94;4906901;29;20052;-84
2022/09/04 03:50:09;;;;;;;1.27;1.17;;;;;;;16.03;79.11;96794.41;4906647;29;20127;-83
2022/09/04 03:52:51;;;;;;;1.88;1.35;;;;;;;16.03;79.35;96805.72;4907156;29;20098;-81
2022/09/04 03:55:57;;;;;;;1.05;0.98;;;;;;;16.05;79.23;96803.69;4906844;29;20053;-81
2022/09/04 03:58:35;;;;;;;1.30;1.20;;;;;;;16.00;78.68;96800.06;4902291;29;20052;-82
2022/09/04 04:01:12;;;;;;;1.48;1.38;;;;;;;15.98;78.97;96799.47;4906564;29;20052;-84
2022/09/04 04:03:57;;;;;;;1.55;1.13;;;;;;;15.95;79.05;96803.34;4906153;29;20066;-81
2022/09/04 04:06:35;;;;;;;1.65;1.10;;;;;;;15.95;79.24;96807.78;4908977;29;20167;-89
2022/09/04 04:09:22;;;;;;;1.13;1.08;;;;;;;15.96;79.11;96812.84;4909898;29;20059;-84
2022/09/04 04:12:01;;;;;;;1.80;1.27;;;;;;;15.95;79.58;96807.78;4908733;29;20113;-82
2022/09/04 04:15:05;;;;;;;1.98;1.30;;;;;;;15.93;78.91;96808.00;4909103;29;20107;-83
2022/09/04 04:17:52;;;;;;;1.92;1.15;;;;;;;15.94;80.64;96811.44;4908599;29;20072;-87
2022/09/04 04:20:33;;;;;;;1.40;1.17;;;;;;;15.92;79.28;96814.28;4906934;29;20049;-86
2022/09/04 04:23:25;;;;;;;1.35;1.25;;;;;;;15.92;78.86;96821.34;4907162;29;20080;-85
2022/09/04 04:26:05;;;;;;;1.35;1.30;;;;;;;15.91;78.78;96822.38;4906383;29;20132;-84
2022/09/04 04:29:03;;;;;;;2.83;1.25;;;;;;;15.94;79.53;96820.16;4905642;29;20056;-81
2022/09/04 04:32:03;;;;;;;2.28;1.73;;;;;;;15.92;78.46;96822.19;4904704;29;20072;-81
2022/09/04 04:34:39;;;;;;;1.30;1.20;;;;;;;15.87;78.31;96824.63;4905088;29;20056;-81
2022/09/04 04:37:15;;;;;;;1.83;1.40;;;;;;;15.81;78.53;96822.84;4904463;29;20487;-81
2022/09/04 04:39:49;;;;;;;1.60;1.50;;;;;;;15.79;78.77;96824.88;4904041;29;20132;-82
2022/09/04 04:42:21;;;;;;;4.28;1.42;;;;;;;15.82;79.64;96834.97;4902685;29;20096;-80
2022/09/04 04:48:00;;;;;;;2.28;1.30;;;;;;;15.81;78.96;96833.38;4902886;29;19971;-80
2022/09/04 04:50:40;;;;;;;1.67;1.30;;;;;;;15.79;78.83;96843.28;4903863;29;20060;-83
2022/09/04 04:53:18;;;;;;;1.27;1.23;;;;;;;15.78;78.90;96849.53;4903880;29;20044;-83
2022/09/04 04:55:53;;;;;;;2.35;1.55;;;;;;;15.76;79.89;96843.69;4904154;29;20052;-82
2022/09/04 04:58:32;;;;;;;2.17;1.17;;;;;;;15.77;79.28;96853.19;4902850;29;20172;-81
2022/09/04 05:01:08;;;;;;;1.33;1.23;;;;;;;15.76;78.61;96856.84;4912570;29;20104;-86
2022/09/04 05:03:49;;;;;;;1.33;1.23;;;;;;;15.76;79.09;96851.56;4911163;29;20108;-87
2022/09/04 05:06:25;;;;;;;1.10;1.00;;;;;;;15.77;78.90;96869.00;4911512;29;20053;-86
2022/09/04 05:09:02;;;;;;;2.13;1.83;;;;;;;15.83;80.20;96873.38;4910844;29;20052;-87
2022/09/04 05:11:38;;;;;;;2.97;1.67;;;;;;;15.90;82.30;96871.56;4910862;29;20063;-87
2022/09/04 05:14:22;;;;;;;2.15;2.03;;;;;;;15.96;83.40;96883.88;4911026;29;20312;-88
2022/09/04 05:16:57;;;;;;;2.13;1.35;;;;;;;15.97;82.19;96885.50;4910859;29;20053;-86
2022/09/04 05:19:32;;;;;;;2.92;1.73;;;;;;;15.92;79.42;96882.69;4912126;29;20063;-84
2022/09/04 05:22:05;;;;;;;4.65;1.73;;;;;;;15.95;81.81;96878.81;4911425;29;20056;-87
2022/09/04 05:24:44;;;;;;;1.58;1.33;;;;;;;15.93;78.99;96886.91;4910741;29;20068;-84
2022/09/04 05:27:45;;;;;;;1.48;1.38;;;;;;;15.92;80.22;96885.31;4910979;29;20045;-85
2022/09/04 05:30:18;;;;;;;1.38;1.27;;;;;;;15.89;78.62;96893.59;4909486;29;20052;-85
2022/09/04 05:32:57;;;;;;;1.85;1.42;;;;;;;15.92;81.32;96897.63;4914500;29;20048;-85
2022/09/04 05:35:36;;;;;;;1.50;1.20;;;;;;;15.93;79.36;96905.34;4913277;29;20060;-84
2022/09/04 05:38:10;;;;;;;1.88;1.70;;;;;;;15.94;79.38;96909.59;4913934;29;20049;-83
2022/09/04 05:41:00;;;;;;;3.80;3.45;;;;;;;16.00;82.65;96910.56;4912949;29;20086;-82
2022/09/04 05:43:41;;;;;;;2.03;1.08;;;;;;;16.00;79.61;96911.38;4913798;29;20071;-84
2022/09/04 05:46:19;;;;;;;1.67;1.52;;;;;;;15.98;78.53;96918.69;4912753;29;20060;-85
2022/09/04 05:48:58;;;;;;;3.10;1.30;;;;;;;15.97;78.80;96930.22;4912875;29;20459;-89
2022/09/04 05:51:57;;;;;;;1.30;1.20;;;;;;;15.96;78.74;96926.00;4921233;23;20076;-80
2022/09/04 05:54:49;;;;;;;1.42;1.25;;;;;;;16.01;79.38;96930.63;4897187;29;20113;-80
2022/09/04 05:57:28;;;;;;;1.30;1.20;;;;;;;16.02;78.50;96930.41;4901000;29;20108;-80
2022/09/04 06:00:09;;;;;;;1.50;1.20;;;;;;;16.01;78.46;96938.50;4900851;29;20551;-80
2022/09/04 06:03:15;;;;;;;2.10;1.67;;;;;;;16.01;78.42;96936.69;4900414;29;20074;-83
2022/09/04 06:05:50;;;;;;;1.50;1.40;;;;;;;16.08;80.45;96938.50;4900584;29;20058;-80
2022/09/04 06:08:31;;;;;;;1.35;1.25;;;;;;;16.18;83.24;96944.94;4900648;29;20143;-80
2022/09/04 06:11:21;;;;;;;1.33;1.23;;;;;;;16.18;79.64;96938.84;4900694;29;20053;-80
2022/09/04 06:14:07;;;;;;;1.75;1.50;;;;;;;16.20;79.44;96948.16;4916767;29;20033;-81
2022/09/04 06:16:52;;;;;;;1.70;1.40;;;;;;;16.25;80.23;96944.91;4922877;29;20052;-80
2022/09/04 06:19:36;;;;;;;1.38;1.30;;;;;;;16.31;81.90;96948.50;4917836;29;20056;-81
2022/09/04 06:22:23;;;;;;;2.28;1.50;;;;;;;16.36;80.20;96959.25;4903625;29;20169;-80
2022/09/04 06:25:09;;;;;;;2.70;2.03;;;;;;;16.42;81.33;96961.84;4902506;29;20092;-80
2022/09/04 06:27:51;;;;;;;2.95;1.40;;;;;;;16.51;81.78;96959.78;4901429;29;20092;-80
2022/09/04 06:30:20;;;;;;;1.60;1.50;;;;;;;16.59;81.98;96966.59;4900022;29;20140;-80
2022/09/04 06:33:07;;;;;;;2.50;1.50;;;;;;;16.70;84.38;96963.28;4900743;29;20476;-80
2022/09/04 06:35:51;;;;;;;1.90;1.70;;;;;;;16.79;83.63;96962.06;4900355;29;20139;-80
2022/09/04 06:38:34;;;;;;;2.25;1.40;;;;;;;16.91;83.63;96972.72;4900510;29;20090;-80
2022/09/04 06:41:19;;;;;;;3.33;1.40;;;;;;;17.01;83.95;96970.44;4899932;29;20511;-80
2022/09/04 06:43:58;;;;;;;1.98;1.55;;;;;;;17.12;83.72;96971.59;4899654;29;20091;-81
2022/09/04 06:46:38;;;;;;;1.80;1.40;;;;;;;17.24;83.87;96966.41;4900161;29;20499;-80
2022/09/04 06:49:12;;;;;;;4.30;2.10;;;;;;;17.35;83.47;96976.25;4900041;29;20578;-80
2022/09/04 06:52:02;;;;;;;1.27;1.17;;;;;;;17.46;83.26;96978.19;4899620;29;20056;-80
2022/09/04 06:54:45;;;;;;;2.72;1.63;;;;;;;17.59;82.99;96979.91;4899331;29;20507;-81
2022/09/04 06:57:28;;;;;;;1.60;1.50;;;;;;;17.68;80.74;96983.09;4899507;29;20483;-80
2022/09/04 07:00:07;;;;;;;1.70;1.60;;;;;;;17.82;82.09;96992.53;4899925;29;20057;-80
2022/09/04 07:03:10;;;;;;;2.67;1.80;;;;;;;17.97;80.95;96986.88;4899949;29;20099;-80
2022/09/04 07:05:47;;;;;;;1.60;1.50;;;;;;;18.07;77.65;96989.81;4892832;29;20148;-80
2022/09/04 07:08:28;;;;;;;1.67;1.58;;;;;;;18.21;79.95;96989.69;4899495;29;20091;-81
2022/09/04 07:11:08;;;;;;;2.20;1.50;;;;;;;18.36;80.04;96990.09;4899434;29;20468;-81
2022/09/04 07:13:59;;;;;;;1.60;1.50;;;;;;;18.52;79.53;96997.44;4900122;29;20060;-80
2022/09/04 07:16:36;;;;;;;1.60;1.40;;;;;;;18.68;77.76;97003.13;4900130;29;20056;-80
2022/09/04 07:19:23;;;;;;;2.05;1.70;;;;;;;18.86;76.14;97008.41;4899924;29;20101;-80
2022/09/04 07:22:08;;;;;;;1.55;1.40;;;;;;;19.02;76.82;97014.91;4899899;29;20096;-81
2022/09/04 07:24:49;;;;;;;2.17;1.80;;;;;;;19.18;76.70;97016.09;4900393;29;20143;-80
2022/09/04 07:27:27;;;;;;;2.22;1.95;;;;;;;19.31;73.95;97018.53;4899999;29;20472;-81
2022/09/04 07:30:01;;;;;;;2.63;1.63;;;;;;;19.46;72.64;97023.41;4900312;29;20087;-81
2022/09/04 07:32:36;;;;;;;1.42;1.33;;;;;;;19.63;72.75;97023.50;4901010;29;20193;-83
2022/09/04 07:35:11;;;;;;;1.73;1.63;;;;;;;19.78;71.22;97025.75;4899671;29;20056;-83
2022/09/04 07:37:45;;;;;;;2.88;1.70;;;;;;;19.94;71.40;97030.38;4899437;29;20080;-82
2022/09/04 07:40:17;;;;;;;1.60;1.50;;;;;;;20.12;69.87;97031.28;4899651;29;20108;-82
2022/09/04 07:42:49;;;;;;;2.45;1.40;;;;;;;20.30;69.14;97022.38;4899924;29;20087;-82
2022/09/04 07:45:31;;;;;;;1.90;1.80;;;;;;;20.49;68.49;97031.00;4899867;29;20053;-82
2022/09/04 07:48:15;;;;;;;2.00;1.83;;;;;;;20.69;69.30;97025.31;4900915;29;20467;-82
2022/09/04 07:51:03;;;;;;;5.65;2.20;;;;;;;20.90;67.52;97035.28;4901933;29;20127;-82
2022/09/04 07:53:46;;;;;;;2.25;1.50;;;;;;;21.13;67.43;97031.69;4902192;29;20143;-82
2022/09/04 07:56:25;;;;;;;4.32;1.80;;;;;;;21.44;66.64;97031.44;4905408;29;20056;-83
2022/09/04 07:59:24;;;;;;;2.53;2.13;;;;;;;21.79;66.70;97045.28;4906638;29;20053;-82
2022/09/04 08:02:04;;;;;;;2.03;1.83;;;;;;;22.21;67.23;97050.13;4903198;29;20057;-83
2022/09/04 08:04:58;;;;;;;1.70;1.60;;;;;;;22.77;63.61;97054.56;4907874;29;20076;-82
2022/09/04 08:07:51;;;;;;;1.85;1.75;;;;;;;23.36;62.10;97056.53;4911424;29;20064;-82
2022/09/04 08:10:30;;;;;;;2.00;1.90;;;;;;;23.80;60.73;97056.41;4912567;29;20056;-82
2022/09/04 08:13:12;;;;;;;2.10;1.90;;;;;;;24.23;58.47;97060.69;4915273;29;20051;-83
2022/09/04 08:15:46;;;;;;;2.83;2.00;;;;;;;24.68;56.89;97061.19;4915455;29;20060;-83
2022/09/04 08:18:45;;;;;;;2.35;2.15;;;;;;;25.17;55.34;97062.66;4915075;29;20057;-82
2022/09/04 08:21:21;;;;;;;1.90;1.80;;;;;;;25.59;53.33;97064.34;4916025;29;20063;-83
2022/09/04 08:24:24;;;;;;;1.77;1.67;;;;;;;26.10;52.77;97064.31;4915561;29;20104;-83
2022/09/04 08:27:08;;;;;;;2.05;1.85;;;;;;;26.57;53.46;97068.53;4917065;29;20049;-83
2022/09/04 08:30:03;;;;;;;2.15;1.40;;;;;;;27.06;49.34;97075.78;4915749;29;20048;-83
2022/09/04 08:33:10;;;;;;;1.55;1.40;;;;;;;27.31;50.85;97068.69;4917161;29;20060;-83
2022/09/04 08:35:52;;;;;;;2.13;1.80;;;;;;;27.46;49.83;97071.28;4903794;29;20084;-83
2022/09/04 08:38:35;;;;;;;2.25;1.77;;;;;;;27.72;48.27;97074.53;4918298;29;20059;-83
2022/09/04 08:41:34;;;;;;;1.40;1.30;;;;;;;27.70;50.00;97070.56;4919004;29;20067;-83
2022/09/04 08:44:42;;;;;;;1.52;1.42;;;;;;;27.44;47.86;97073.44;4918704;29;20059;-83
2022/09/04 08:48:08;;;;;;;2.70;1.60;;;;;;;27.07;47.98;97073.91;4919540;29;20081;-83
2022/09/04 08:51:16;;;;;;;1.90;1.70;;;;;;;26.63;49.94;97071.97;4918955;29;20032;-84
2022/09/04 08:54:02;;;;;;;2.45;1.58;;;;;;;26.73;49.50;97071.94;4920910;29;20112;-83
2022/09/04 08:56:42;;;;;;;1.45;1.35;;;;;;;26.98;47.89;97079.03;4919432;29;20078;-83
2022/09/04 08:59:43;;;;;;;1.77;1.60;;;;;;;27.46;47.76;97073.97;4917144;29;20093;-83
2022/09/04 09:02:50;;;;;;;7.25;1.60;;;;;;;28.32;47.26;97084.25;4918093;29;20033;-83
2022/09/04 09:05:54;;;;;;;1.50;1.30;;;;;;;29.28;44.95;97078.81;4902169;29;20056;-83
2022/09/04 09:08:58;;;;;;;7.63;1.40;;;;;;;29.99;41.74;97076.88;4922347;29;20063;-83
2022/09/04 09:12:19;;;;;;;1.95;1.02;;;;;;;30.23;41.16;97083.22;4905894;29;20048;-83
2022/09/04 09:15:26;;;;;;;2.37;1.40;;;;;;;30.44;41.97;97086.34;4920766;29;20053;-83
2022/09/04 09:18:31;;;;;;;1.33;1.20;;;;;;;31.17;40.86;97085.41;4905235;29;20307;-83
2022/09/04 09:21:09;;;;;;;1.05;1.00;;;;;;;31.39;41.45;97086.53;4903471;29;20076;-83
2022/09/04 09:24:05;;;;;;;1.45;1.35;;;;;;;31.54;38.62;97080.03;4923958;29;20059;-81
2022/09/04 09:27:10;;;;;;;1.40;1.30;;;;;;;31.24;38.94;97081.50;4922222;29;20077;-83
2022/09/04 09:30:09;;;;;;;2.60;1.08;;;;;;;30.73;39.60;97081.47;4924381;29;20043;-82
2022/09/04 09:33:28;;;;;;;1.73;1.30;;;;;;;30.54;42.12;97078.06;4909164;29;20053;-84
2022/09/04 09:36:50;;;;;;;1.10;1.10;;;;;;;30.72;43.31;97082.56;4913662;29;20637;-82
2022/09/04 09:40:05;;;;;;;1.13;1.02;;;;;;;31.06;41.23;97086.72;4862615;29;20041;-83
2022/09/04 09:43:08;;;;;;;1.23;0.82;;;;;;;30.95;40.12;97085.34;4922848;29;20041;-81
2022/09/04 09:46:19;;;;;;;2.15;1.10;;;;;;;32.26;37.97;97084.47;4906212;29;20048;-84
2022/09/04 10:22:07;;;;;;;1.00;0.63;;;;;;;33.77;32.24;97059.78;6250911;22;20038;-73
2022/09/04 11:12:37;;;;;;;0.43;0.43;;;;;;;30.74;35.49;97048.06;6268966;22;20051;-81
2022/09/04 11:34:49;;;;;;;0.32;0.32;;;;;;;29.94;35.19;97042.03;6296714;22;19907;-81
2022/09/04 11:43:06;;;;;;;0.50;0.30;;;;;;;29.76;33.07;97034.81;6305782;22;20006;-81
2022/09/04 11:46:05;;;;;;;0.32;0.32;;;;;;;29.66;33.77;97034.94;6277037;22;20048;-82
2022/09/04 11:49:09;;;;;;;0.43;0.35;;;;;;;29.58;33.46;97033.72;6252081;23;20035;-81
2022/09/04 11:52:12;;;;;;;0.63;0.30;;;;;;;29.53;33.14;97031.91;6275877;23;20069;-81
2022/09/04 11:55:23;;;;;;;0.60;0.20;;;;;;;29.44;33.79;97033.69;6256321;22;20024;-82
2022/09/04 12:12:31;;;;;;;2.53;0.50;;;;;;;29.30;35.14;97032.81;6272384;23;20024;-83
2022/09/04 12:41:38;;;;;;;0.50;0.32;;;;;;;28.75;34.43;97023.38;6307481;22;20059;-82
2022/09/04 12:47:33;;;;;;;0.90;0.50;;;;;;;28.59;34.23;97029.22;6284719;22;20000;-81
2022/09/04 13:12:35;;;;;;;0.52;0.43;;;;;;;28.00;35.10;97025.81;6294540;22;20034;-82
2022/09/04 13:19:23;;;;;;;1.05;0.47;;;;;;;27.90;33.54;97030.22;6321612;22;20007;-80
2022/09/04 13:22:09;;;;;;;0.70;0.70;;;;;;;27.86;34.05;97033.75;6335794;22;20019;-81
2022/09/04 13:24:52;;;;;;;1.15;0.40;;;;;;;27.83;34.95;97032.38;6331958;22;20023;-81
2022/09/04 13:27:56;;;;;;;0.52;0.52;;;;;;;27.82;34.65;97035.34;6334367;22;20003;-81
2022/09/04 13:30:28;;;;;;;0.50;0.50;;;;;;;27.77;34.46;97030.84;6336122;22;20011;-82
2022/09/04 13:33:24;;;;;;;0.75;0.63;;;;;;;27.74;34.78;97031.38;6334020;22;20455;-81
2022/09/04 13:36:09;;;;;;;1.00;0.40;;;;;;;27.68;34.73;97036.00;6331378;22;20019;-81
2022/09/04 13:39:14;;;;;;;0.73;0.73;;;;;;;27.64;34.84;97037.66;6330352;22;20023;-81
2022/09/04 13:42:13;;;;;;;0.82;0.60;;;;;;;27.60;35.22;97027.78;6330767;22;20019;-81
2022/09/04 13:45:11;;;;;;;1.77;0.60;;;;;;;27.58;35.32;97032.63;6333059;22;20055;-81
2022/09/04 13:47:49;;;;;;;0.65;0.50;;;;;;;27.52;35.58;97031.84;6331404;22;20031;-81
2022/09/04 13:50:25;;;;;;;1.08;0.70;;;;;;;27.45;35.26;97028.69;6333214;22;20030;-81
2022/09/04 13:52:59;;;;;;;0.77;0.50;;;;;;;27.40;35.88;97032.22;6332012;22;20019;-81
2022/09/04 13:55:33;;;;;;;1.40;0.50;;;;;;;27.37;33.93;97032.75;6332289;22;20041;-81
2022/09/04 13:58:11;;;;;;;0.85;0.55;;;;;;;27.31;33.86;97029.34;6331434;22;20016;-82
2022/09/04 14:00:48;;;;;;;0.77;0.40;;;;;;;27.28;33.27;97023.72;6331575;22;20022;-81
2022/09/04 14:03:31;;;;;;;1.50;0.55;;;;;;;27.26;34.59;97032.03;6332245;22;20026;-81
2022/09/04 14:06:04;;;;;;;0.80;0.70;;;;;;;27.23;33.48;97032.59;6331962;22;20019;-81
2022/09/04 14:08:44;;;;;;;1.13;0.60;;;;;;;27.20;33.64;97024.28;6331295;22;20084;-81
2022/09/04 14:12:12;;;;;;;0.68;0.55;;;;;;;27.18;34.36;97029.13;6331015;22;20019;-81
2022/09/04 14:15:12;;;;;;;0.93;0.55;;;;;;;27.10;33.80;97023.28;6329402;22;20010;-81
2022/09/04 14:17:51;;;;;;;1.38;0.75;;;;;;;27.05;34.34;97028.66;6331761;22;20014;-81
2022/09/04 14:20:26;;;;;;;1.27;0.60;;;;;;;27.02;34.20;97042.59;6332149;22;20049;-81
2022/09/04 14:23:23;;;;;;;0.75;0.55;;;;;;;26.97;34.72;97045.31;6332883;22;20042;-83
2022/09/04 14:26:06;;;;;;;1.38;0.80;;;;;;;26.94;34.61;97040.53;6329073;22;20053;-82
2022/09/04 14:28:47;;;;;;;1.75;0.65;;;;;;;26.94;35.30;97043.19;6331502;22;20019;-82
2022/09/04 14:31:26;;;;;;;0.88;0.50;;;;;;;26.94;34.84;97040.53;6333179;22;20018;-82
2022/09/04 14:34:13;;;;;;;0.95;0.50;;;;;;;26.92;34.54;97037.31;6334370;22;20016;-82
2022/09/04 14:36:55;;;;;;;2.72;0.63;;;;;;;26.91;34.27;97036.50;6331108;22;20006;-81
2022/09/04 14:39:32;;;;;;;0.57;0.57;;;;;;;26.88;35.99;97037.06;6332982;22;20023;-81
2022/09/04 14:42:27;;;;;;;0.82;0.60;;;;;;;26.85;35.72;97040.31;6333255;22;20092;-83
2022/09/04 14:45:22;;;;;;;1.20;0.40;;;;;;;26.81;35.23;97043.81;6331740;22;20015;-82
2022/09/04 14:47:54;;;;;;;1.58;0.60;;;;;;;26.77;35.41;97040.06;6333139;22;20023;-82
2022/09/04 14:50:29;;;;;;;0.40;0.40;;;;;;;26.74;35.58;97037.94;6333509;22;20097;-82
2022/09/04 14:53:02;;;;;;;1.83;1.10;;;;;;;26.69;35.31;97039.56;6332633;22;20011;-81
2022/09/04 14:55:33;;;;;;;1.02;0.60;;;;;;;26.65;37.30;97038.50;6332764;22;20070;-82
2022/09/04 14:58:09;;;;;;;;;;;;;;;26.63;36.32;97040.69;6331594;22;20471;-81
2022/09/04 15:00:57;;;;;;;1.13;0.47;;;;;;;26.54;36.22;97036.91;6333018;22;19921;-81
2022/09/04 15:03:35;;;;;;;0.40;0.40;;;;;;;26.48;34.08;97032.69;6332756;22;20019;-81
2022/09/04 15:06:17;;;;;;;0.50;0.40;;;;;;;26.43;35.02;97041.50;6332598;22;20037;-81
2022/09/04 15:08:55;;;;;;;0.85;0.60;;;;;;;26.40;35.40;97030.56;6332597;22;20033;-81
2022/09/04 15:11:29;;;;;;;0.80;0.65;;;;;;;26.37;36.37;97036.44;6328729;22;20023;-81
2022/09/04 15:14:06;;;;;;;1.85;0.60;;;;;;;26.33;36.72;97036.22;6332462;22;20015;-82
2022/09/04 15:16:48;;;;;;;1.02;0.80;;;;;;;26.29;36.06;97029.78;6332637;22;20004;-81
2022/09/04 15:19:43;;;;;;;0.80;0.50;;;;;;;26.23;35.95;97026.31;6331243;22;20075;-81
2022/09/04 15:22:19;;;;;;;1.60;0.70;;;;;;;26.21;37.10;97030.34;6332171;22;20029;-80
2022/09/04 15:25:09;;;;;;;0.80;0.75;;;;;;;26.18;36.69;97034.38;6331075;22;20069;-83
2022/09/04 15:28:19;;;;;;;0.88;0.70;;;;;;;26.13;36.92;97034.41;6331090;22;20019;-84
2022/09/04 15:31:10;;;;;;;0.75;0.70;;;;;;;26.08;36.11;97039.72;6329070;22;20045;-83
2022/09/04 15:33:45;;;;;;;1.75;0.73;;;;;;;26.03;36.96;97037.06;6324593;22;20023;-81
2022/09/04 15:36:19;;;;;;;3.97;0.45;;;;;;;26.00;37.13;97033.09;6327434;22;20023;-80
2022/09/04 15:38:52;;;;;;;0.98;0.68;;;;;;;25.96;37.70;97031.22;6328974;22;20045;-80
2022/09/04 15:41:35;;;;;;;2.13;1.00;;;;;;;25.93;38.03;97037.09;6327446;22;20045;-83
2022/09/04 15:44:16;;;;;;;0.50;0.50;;;;;;;25.90;39.25;97044.56;6328649;22;20019;-80
2022/09/04 15:46:56;;;;;;;0.52;0.52;;;;;;;25.88;38.46;97048.59;6329031;22;20023;-84
2022/09/04 15:49:41;;;;;;;0.60;0.60;;;;;;;25.84;42.97;97042.94;6326405;22;20058;-83